createdAt,value
2019-01-09T00:01:00.920Z,0.47
2019-01-09T00:03:32.872Z,0.53
2019-01-09T00:06:04.754Z,0.51
2019-01-09T00:08:36.770Z,0.59
2019-01-09T00:11:09.330Z,0.57
2019-01-09T00:13:41.566Z,0.58
2019-01-09T00:16:13.602Z,0.56
2019-01-09T00:18:45.597Z,0.57
2019-01-09T00:21:17.942Z,0.58
2019-01-09T00:23:49.925Z,0.51
2019-01-09T00:26:21.883Z,0.46
2019-01-09T00:28:53.898Z,0.26
2019-01-09T00:31:25.830Z,0.33
2019-01-09T00:33:57.651Z,0.24
2019-01-09T00:36:29.528Z,0.25
2019-01-09T00:39:01.548Z,0.25
2019-01-09T00:41:34.422Z,0.27
2019-01-09T00:44:06.542Z,0.21
2019-01-09T00:46:38.764Z,0.24
2019-01-09T00:49:10.731Z,0.27
2019-01-09T00:51:42.646Z,0.24
2019-01-09T00:54:14.583Z,0.30
2019-01-09T00:56:46.932Z,0.33
2019-01-09T00:59:18.920Z,0.36
2019-01-09T01:02:19.313Z,0.36
2019-01-09T01:05:29.925Z,0.29
2019-01-09T01:09:03.530Z,0.44
2019-01-09T01:12:18.533Z,0.37
2019-01-09T01:15:37.277Z,0.31
2019-01-09T01:18:42.707Z,0.26
2019-01-09T01:21:46.650Z,0.25
2019-01-09T01:25:08.677Z,0.21
2019-01-09T01:28:13.929Z,0.07
2019-01-09T01:31:23.939Z,0.18
2019-01-09T01:35:23.297Z,0.14
2019-01-09T01:38:25.453Z,0.16
2019-01-09T01:41:20.700Z,0.11
2019-01-09T01:44:27.469Z,0.11
2019-01-09T01:48:06.305Z,0.04
2019-01-09T01:51:21.970Z,0.11
2019-01-09T01:54:36.615Z,0.17
2019-01-09T01:58:25.843Z,0.12
2019-01-09T02:02:08.350Z,0.22
2019-01-09T02:05:28.383Z,0.17
2019-01-09T02:08:58.885Z,0.17
2019-01-09T02:11:59.403Z,0.22
2019-01-09T02:15:14.761Z,0.17
2019-01-09T02:18:31.920Z,0.09
2019-01-09T02:21:33.592Z,0.11
2019-01-09T02:24:48.526Z,0.25
2019-01-09T02:27:36.557Z,0.17
2019-01-09T02:30:58.627Z,0.16
2019-01-09T02:33:30.363Z,0.10
2019-01-09T02:36:02.174Z,-0.16
2019-01-09T02:38:33.921Z,-0.17
2019-01-09T02:41:05.720Z,-0.24
2019-01-09T02:43:37.537Z,-0.25
2019-01-09T02:46:10.010Z,-0.41
2019-01-09T02:48:42.010Z,-0.33
2019-01-09T02:51:14.115Z,-0.30
2019-01-09T02:53:45.998Z,-0.25
2019-01-09T02:56:17.729Z,-0.32
2019-01-09T02:58:49.549Z,-0.36
2019-01-09T03:01:21.353Z,-0.27
2019-01-09T03:03:53.416Z,-0.46
2019-01-09T03:06:25.154Z,-0.29
2019-01-09T03:08:56.962Z,-0.34
2019-01-09T03:11:28.799Z,-0.32
2019-01-09T03:14:00.618Z,-0.42
2019-01-09T03:16:32.422Z,-0.27
2019-01-09T03:19:04.233Z,-0.36
2019-01-09T03:21:36.111Z,-0.24
2019-01-09T03:24:08.001Z,-0.21
2019-01-09T03:26:39.879Z,-0.17
2019-01-09T03:29:11.688Z,-0.21
2019-01-09T03:31:43.419Z,-0.23
2019-01-09T03:34:15.307Z,-0.18
2019-01-09T03:36:47.366Z,-0.18
2019-01-09T03:39:19.252Z,-0.19
2019-01-09T03:41:51.067Z,-0.31
2019-01-09T03:44:23.204Z,-0.29
2019-01-09T03:46:55.072Z,-0.27
2019-01-09T03:49:26.931Z,-0.32
2019-01-09T03:51:58.735Z,-0.42
2019-01-09T03:54:30.707Z,-0.34
2019-01-09T03:57:02.490Z,-0.41
2019-01-09T03:59:34.213Z,-0.39
2019-01-09T04:02:05.998Z,-0.42
2019-01-09T04:04:37.782Z,-0.50
2019-01-09T04:07:09.642Z,-0.56
2019-01-09T04:09:41.424Z,-0.62
2019-01-09T04:12:13.205Z,-0.55
2019-01-09T04:14:44.916Z,-0.74
2019-01-09T04:17:16.623Z,-0.79
2019-01-09T04:19:48.328Z,-0.61
2019-01-09T04:22:20.034Z,-0.61
2019-01-09T04:24:51.818Z,-0.67
2019-01-09T04:27:23.507Z,-0.50
2019-01-09T04:29:55.469Z,-0.51
2019-01-09T04:32:27.193Z,-0.48
2019-01-09T04:34:58.903Z,-0.49
2019-01-09T04:37:30.597Z,-0.61
2019-01-09T04:40:02.307Z,-0.56
2019-01-09T04:42:34.070Z,-0.49
2019-01-09T04:45:06.215Z,-0.59
2019-01-09T04:47:37.905Z,-0.52
2019-01-09T04:50:10.427Z,-0.48
2019-01-09T04:52:42.198Z,-0.52
2019-01-09T04:55:13.909Z,-0.45
2019-01-09T04:57:45.604Z,-0.46
2019-01-09T05:00:17.320Z,-0.45
2019-01-09T05:02:49.019Z,-0.46
2019-01-09T05:05:20.731Z,-0.49
2019-01-09T05:07:52.764Z,-0.50
2019-01-09T05:10:24.475Z,-0.48
2019-01-09T05:12:56.185Z,-0.48
2019-01-09T05:15:27.979Z,-0.53
2019-01-09T05:17:59.682Z,-0.59
2019-01-09T05:20:32.362Z,-0.53
2019-01-09T05:23:04.057Z,-0.60
2019-01-09T05:25:35.771Z,-0.55
2019-01-09T05:28:07.721Z,-0.49
2019-01-09T05:30:39.690Z,-0.48
2019-01-09T05:33:11.468Z,-0.49
2019-01-09T05:35:43.186Z,-0.54
2019-01-09T05:38:15.855Z,-0.52
2019-01-09T05:40:47.558Z,-0.52
2019-01-09T05:43:19.508Z,-0.56
2019-01-09T05:45:51.284Z,-0.56
2019-01-09T05:48:22.990Z,-0.55
2019-01-09T05:50:54.697Z,-0.49
2019-01-09T05:53:26.463Z,-0.47
2019-01-09T05:55:58.252Z,-0.45
2019-01-09T05:58:29.957Z,-0.47
2019-01-09T06:01:01.674Z,-0.53
2019-01-09T06:03:33.375Z,-0.55
2019-01-09T06:06:05.410Z,-0.53
2019-01-09T06:08:37.180Z,-0.54
2019-01-09T06:11:10.002Z,-0.59
2019-01-09T06:13:41.712Z,-0.51
2019-01-09T06:16:13.436Z,-0.52
2019-01-09T06:18:45.455Z,-0.51
2019-01-09T06:21:17.169Z,-0.73
2019-01-09T06:23:48.871Z,-0.69
2019-01-09T06:26:20.588Z,-0.61
2019-01-09T06:28:52.547Z,-0.55
2019-01-09T06:31:24.258Z,-0.74
2019-01-09T06:33:56.040Z,-0.64
2019-01-09T06:36:27.829Z,-0.63
2019-01-09T06:38:59.537Z,-0.74
2019-01-09T06:41:31.586Z,-0.69
2019-01-09T06:44:03.364Z,-0.68
2019-01-09T06:46:35.068Z,-0.61
2019-01-09T06:49:06.850Z,-0.58
2019-01-09T06:51:39.076Z,-0.53
2019-01-09T06:54:10.875Z,-0.58
2019-01-09T06:56:42.809Z,-0.62
2019-01-09T06:59:14.514Z,-0.64
2019-01-09T07:01:46.225Z,-0.64
2019-01-09T07:04:17.918Z,-0.75
2019-01-09T07:06:49.650Z,-0.71
2019-01-09T07:09:21.352Z,-0.64
2019-01-09T07:11:53.059Z,-0.60
2019-01-09T07:14:24.761Z,-0.79
2019-01-09T07:16:56.801Z,-0.65
2019-01-09T07:19:28.604Z,-0.60
2019-01-09T07:22:00.397Z,-0.65
2019-01-09T07:24:32.101Z,-0.69
2019-01-09T07:27:03.903Z,-0.70
2019-01-09T07:29:35.860Z,-0.72
2019-01-09T07:32:07.669Z,-0.78
2019-01-09T07:34:39.364Z,-0.88
2019-01-09T07:37:11.423Z,-1.08
2019-01-09T07:39:43.194Z,-0.93
2019-01-09T07:42:14.909Z,-1.00
2019-01-09T07:44:46.611Z,-0.89
2019-01-09T07:47:18.481Z,-0.90
2019-01-09T07:49:50.208Z,-0.99
2019-01-09T07:52:21.932Z,-0.98
2019-01-09T07:54:53.720Z,-0.97
2019-01-09T07:57:25.599Z,-0.88
2019-01-09T07:59:57.370Z,-0.94
2019-01-09T08:02:29.154Z,-0.95
2019-01-09T08:05:00.985Z,-0.92
2019-01-09T08:07:32.702Z,-1.09
2019-01-09T08:10:05.033Z,-0.97
2019-01-09T08:12:36.759Z,-1.01
2019-01-09T08:15:10.183Z,-1.06
2019-01-09T08:17:41.885Z,-0.91
2019-01-09T08:20:13.666Z,-0.90
2019-01-09T08:22:45.443Z,-1.01
2019-01-09T08:25:17.138Z,-0.81
2019-01-09T08:27:48.848Z,-0.82
2019-01-09T08:30:20.871Z,-0.76
2019-01-09T08:32:52.583Z,-0.73
2019-01-09T08:35:24.282Z,-0.74
2019-01-09T08:38:02.611Z,-0.90
2019-01-09T08:40:29.471Z,-0.82
2019-01-09T08:43:01.274Z,-0.88
2019-01-09T08:45:33.254Z,-0.92
2019-01-09T08:48:04.960Z,-0.85
2019-01-09T08:50:36.682Z,-0.82
2019-01-09T08:53:09.326Z,-0.86
2019-01-09T08:55:41.157Z,-0.93
2019-01-09T08:58:12.957Z,-0.76
2019-01-09T09:00:44.661Z,-0.66
2019-01-09T09:03:16.643Z,-0.62
2019-01-09T09:05:48.469Z,-0.65
2019-01-09T09:08:21.481Z,-0.75
2019-01-09T09:10:53.329Z,-0.88
2019-01-09T09:13:44.284Z,-0.96
2019-01-09T09:16:16.058Z,-1.08
2019-01-09T09:18:47.925Z,-1.14
2019-01-09T09:21:19.692Z,-1.07
2019-01-09T09:23:51.796Z,-1.13
2019-01-09T09:26:23.498Z,-1.14
2019-01-09T09:28:55.285Z,-0.82
2019-01-09T09:31:27.208Z,-1.06
2019-01-09T09:33:58.940Z,-0.87
2019-01-09T09:36:30.895Z,-0.96
2019-01-09T09:39:02.611Z,-0.96
2019-01-09T09:41:34.315Z,-0.68
2019-01-09T09:44:06.256Z,-0.78
2019-01-09T09:46:38.945Z,-0.79
2019-01-09T09:49:10.808Z,-0.72
2019-01-09T09:51:42.594Z,-0.71
2019-01-09T09:54:14.376Z,-0.83
2019-01-09T09:56:46.135Z,-0.79
2019-01-09T09:59:17.844Z,-0.81
2019-01-09T10:01:49.562Z,-0.73
2019-01-09T10:04:21.269Z,-0.75
2019-01-09T10:06:53.056Z,-0.82
2019-01-09T10:09:24.757Z,-0.76
2019-01-09T10:11:56.458Z,-0.73
2019-01-09T10:14:28.339Z,-0.78
2019-01-09T10:17:00.039Z,-0.70
2019-01-09T10:19:31.990Z,-0.70
2019-01-09T10:22:03.855Z,-0.79
2019-01-09T10:24:35.562Z,-0.80
2019-01-09T10:27:07.407Z,-0.81
2019-01-09T10:29:39.125Z,-0.87
2019-01-09T10:32:10.903Z,-0.85
2019-01-09T10:34:42.595Z,-0.90
2019-01-09T10:37:14.328Z,-0.87
2019-01-09T10:39:46.516Z,-0.76
2019-01-09T10:42:18.204Z,-0.85
2019-01-09T10:44:49.921Z,-0.87
2019-01-09T10:47:21.891Z,-0.94
2019-01-09T10:49:53.610Z,-0.92
2019-01-09T10:52:25.334Z,-0.86
2019-01-09T10:54:57.113Z,-0.96
2019-01-09T10:57:28.901Z,-0.90
2019-01-09T11:00:01.585Z,-1.12
2019-01-09T11:02:34.258Z,-1.02
2019-01-09T11:05:07.879Z,-1.01
2019-01-09T11:07:39.740Z,-0.99
2019-01-09T11:10:12.346Z,-1.10
2019-01-09T11:12:44.215Z,-1.10
2019-01-09T11:15:16.238Z,-1.17
2019-01-09T11:17:47.947Z,-1.19
2019-01-09T11:20:21.628Z,-1.11
2019-01-09T11:22:54.301Z,-1.18
2019-01-09T11:25:28.564Z,-1.11
2019-01-09T11:28:00.321Z,-1.18
2019-01-09T11:30:32.018Z,-1.28
2019-01-09T11:33:03.707Z,-1.31
2019-01-09T11:35:35.656Z,-1.14
2019-01-09T11:38:09.213Z,-1.18
2019-01-09T11:40:40.997Z,-1.08
2019-01-09T11:43:12.689Z,-0.97
2019-01-09T11:45:45.430Z,-1.04
2019-01-09T11:48:17.130Z,-0.86
2019-01-09T11:50:48.846Z,-0.95
2019-01-09T11:53:20.799Z,-0.93
2019-01-09T11:55:52.601Z,-0.87
2019-01-09T11:58:24.288Z,-0.80
2019-01-09T12:00:56.006Z,-0.90
2019-01-09T12:03:27.882Z,-0.89
2019-01-09T12:05:59.585Z,-0.93
2019-01-09T12:08:31.603Z,-0.91
2019-01-09T12:11:03.471Z,-0.77
2019-01-09T12:13:35.756Z,-1.02
2019-01-09T12:16:08.407Z,-0.91
2019-01-09T12:18:40.233Z,-1.01
2019-01-09T12:21:16.677Z,-0.92
2019-01-09T12:23:45.416Z,-0.93
2019-01-09T12:26:17.129Z,-0.90
2019-01-09T12:28:53.383Z,-0.88
2019-01-09T12:31:22.288Z,-0.88
2019-01-09T12:33:53.975Z,-0.97
2019-01-09T12:36:25.833Z,-0.89
2019-01-09T12:38:57.530Z,-0.86
2019-01-09T12:41:29.229Z,-0.82
2019-01-09T12:44:00.928Z,-0.88
2019-01-09T12:46:32.629Z,-0.74
2019-01-09T12:49:04.316Z,-0.80
2019-01-09T12:51:36.041Z,-0.74
2019-01-09T12:54:07.809Z,-0.68
2019-01-09T12:56:39.518Z,-0.73
2019-01-09T12:59:11.205Z,-0.82
2019-01-09T13:01:42.910Z,-0.97
2019-01-09T13:04:14.623Z,-0.85
2019-01-09T13:06:46.324Z,-0.95
2019-01-09T13:09:22.379Z,-0.94
2019-01-09T13:11:51.415Z,-1.08
2019-01-09T13:14:23.119Z,-1.07
2019-01-09T13:16:54.829Z,-1.01
2019-01-09T13:19:26.531Z,-1.05
2019-01-09T13:21:58.227Z,-1.03
2019-01-09T13:24:29.922Z,-0.92
2019-01-09T13:27:01.625Z,-1.02
2019-01-09T13:29:33.335Z,-0.96
2019-01-09T13:32:05.201Z,-0.95
2019-01-09T13:34:37.047Z,-0.94
2019-01-09T13:37:09.775Z,-0.79
2019-01-09T13:39:41.485Z,-0.91
2019-01-09T13:42:13.197Z,-0.94
2019-01-09T13:44:44.892Z,-0.75
2019-01-09T13:47:16.616Z,-0.95
2019-01-09T13:49:48.472Z,-0.93
2019-01-09T13:52:20.205Z,-0.96
2019-01-09T13:54:51.976Z,-0.86
2019-01-09T13:57:24.150Z,-0.90
2019-01-09T13:59:55.897Z,-0.96
2019-01-09T14:02:27.676Z,-1.28
2019-01-09T14:04:59.474Z,-1.08
2019-01-09T14:07:31.256Z,-1.17
2019-01-09T14:10:02.960Z,-1.18
2019-01-09T14:12:34.680Z,-1.31
2019-01-09T14:15:08.517Z,-1.30
2019-01-09T14:17:40.294Z,-1.23
2019-01-09T14:20:12.534Z,-1.20
2019-01-09T14:22:46.597Z,-1.23
2019-01-09T14:25:18.355Z,-1.19
2019-01-09T14:27:50.060Z,-1.32
2019-01-09T14:30:27.962Z,-1.21
2019-01-09T14:32:59.676Z,-1.28
2019-01-09T14:35:31.442Z,-1.30
2019-01-09T14:38:03.229Z,-1.26
2019-01-09T14:40:34.993Z,-1.23
2019-01-09T14:43:06.854Z,-1.33
2019-01-09T14:45:38.557Z,-1.35
2019-01-09T14:48:10.528Z,-1.46
2019-01-09T14:50:42.381Z,-1.47
2019-01-09T14:53:14.162Z,-1.39
2019-01-09T14:55:46.012Z,-1.30
2019-01-09T14:58:17.725Z,-1.50
2019-01-09T15:00:50.566Z,-1.40
2019-01-09T15:03:22.358Z,-1.41
2019-01-09T15:05:54.324Z,-1.34
2019-01-09T15:08:26.037Z,-1.49
2019-01-09T15:10:57.805Z,-1.41
2019-01-09T15:13:29.845Z,-1.40
2019-01-09T15:16:01.617Z,-1.47
2019-01-09T15:18:33.389Z,-1.42
2019-01-09T15:21:05.177Z,-1.46
2019-01-09T15:23:36.899Z,-1.47
2019-01-09T15:26:09.798Z,-1.47
2019-01-09T15:28:42.171Z,-1.39
2019-01-09T15:31:13.956Z,-1.40
2019-01-09T15:33:45.916Z,-1.51
2019-01-09T15:36:17.771Z,-1.68
2019-01-09T15:38:49.549Z,-1.55
2019-01-09T15:41:21.654Z,-1.44
2019-01-09T15:43:53.422Z,-1.55
2019-01-09T15:46:25.153Z,-1.51
2019-01-09T15:48:57.189Z,-1.43
2019-01-09T15:51:29.049Z,-1.45
2019-01-09T15:54:00.859Z,-1.50
2019-01-09T15:56:32.633Z,-1.44
2019-01-09T15:59:04.603Z,-1.41
2019-01-09T16:01:36.459Z,-1.42
2019-01-09T16:04:09.479Z,-1.43
2019-01-09T16:06:41.253Z,-1.35
2019-01-09T16:09:13.060Z,-1.56
2019-01-09T16:11:44.762Z,-1.50
2019-01-09T16:14:16.476Z,-1.40
2019-01-09T16:16:48.173Z,-1.46
2019-01-09T16:19:19.945Z,-1.43
2019-01-09T16:21:51.709Z,-1.54
2019-01-09T16:24:23.584Z,-1.42
2019-01-09T16:26:55.269Z,-1.50
2019-01-09T16:29:28.001Z,-1.47
2019-01-09T16:31:59.707Z,-1.52
2019-01-09T16:34:31.485Z,-1.53
2019-01-09T16:37:03.184Z,-1.46
2019-01-09T16:39:35.048Z,-1.61
2019-01-09T16:42:06.887Z,-1.63
2019-01-09T16:44:38.595Z,-1.51
2019-01-09T16:47:10.456Z,-1.56
2019-01-09T16:49:42.251Z,-1.66
2019-01-09T16:52:14.227Z,-1.52
2019-01-09T16:54:45.957Z,-1.55
2019-01-09T16:57:17.663Z,-1.53
2019-01-09T16:59:49.629Z,-1.61
2019-01-09T17:02:21.365Z,-1.68
2019-01-09T17:04:53.078Z,-1.84
2019-01-09T17:07:24.860Z,-1.61
2019-01-09T17:09:56.641Z,-1.71
2019-01-09T17:12:28.911Z,-1.68
2019-01-09T17:15:00.616Z,-1.65
2019-01-09T17:17:32.319Z,-1.72
2019-01-09T17:20:04.819Z,-1.67
2019-01-09T17:22:36.798Z,-1.79
2019-01-09T17:25:09.463Z,-1.71
2019-01-09T17:27:41.500Z,-1.89
2019-01-09T17:30:25.401Z,-1.88
2019-01-09T17:32:57.342Z,-1.94
2019-01-09T17:35:29.211Z,-1.89
2019-01-09T17:38:01.866Z,-1.84
2019-01-09T17:40:40.896Z,-1.83
2019-01-09T17:43:07.114Z,-1.88
2019-01-09T17:45:38.826Z,-1.83
2019-01-09T17:48:10.660Z,-1.89
2019-01-09T17:50:42.907Z,-1.95
2019-01-09T17:53:14.865Z,-1.88
2019-01-09T17:55:46.568Z,-1.84
2019-01-09T17:58:18.342Z,-1.93
2019-01-09T18:00:50.418Z,-1.89
2019-01-09T18:03:22.203Z,-1.88
2019-01-09T18:05:54.884Z,-1.93
2019-01-09T18:08:26.790Z,-1.90
2019-01-09T18:10:59.193Z,-2.02
2019-01-09T18:13:30.985Z,-2.03
2019-01-09T18:16:03.034Z,-2.07
2019-01-09T18:18:34.810Z,-1.95
2019-01-09T18:21:06.968Z,-1.89
2019-01-09T18:23:38.764Z,-1.90
2019-01-09T18:26:10.627Z,-1.92
2019-01-09T18:28:42.341Z,-2.05
2019-01-09T18:32:03.288Z,-1.96
2019-01-09T18:35:39.569Z,-2.02
2019-01-09T18:38:51.044Z,-1.90
2019-01-09T18:41:42.918Z,-2.13
2019-01-09T18:44:58.541Z,-1.96
2019-01-09T18:48:36.838Z,-2.05
2019-01-09T18:52:14.699Z,-1.99
2019-01-09T18:54:46.658Z,-2.11
2019-01-09T18:57:18.389Z,-1.95
2019-01-09T18:59:50.246Z,-2.05
2019-01-09T19:02:22.193Z,-1.97
2019-01-09T19:04:54.167Z,-1.96
2019-01-09T19:07:26.126Z,-1.93
2019-01-09T19:09:57.918Z,-1.96
2019-01-09T19:12:29.650Z,-1.93
2019-01-09T19:15:01.729Z,-1.93
2019-01-09T19:17:33.508Z,-2.01
2019-01-09T19:20:06.914Z,-2.14
2019-01-09T19:22:38.709Z,-2.01
2019-01-09T19:25:11.501Z,-2.01
2019-01-09T19:27:43.383Z,-1.83
2019-01-09T19:30:27.058Z,-1.99
2019-01-09T19:32:59.017Z,-1.89
2019-01-09T19:35:30.864Z,-1.84
2019-01-09T19:38:02.726Z,-1.82
2019-01-09T19:40:34.509Z,-1.85
2019-01-09T19:43:07.440Z,-2.10
2019-01-09T19:45:40.262Z,-1.83
2019-01-09T19:48:12.208Z,-1.79
2019-01-09T19:50:44.064Z,-1.87
2019-01-09T19:53:16.044Z,-1.83
2019-01-09T19:55:47.889Z,-1.82
2019-01-09T19:58:19.994Z,-1.86
2019-01-09T20:00:52.013Z,-1.79
2019-01-09T20:03:23.799Z,-1.78
2019-01-09T20:05:55.640Z,-1.95
2019-01-09T20:08:27.516Z,-1.76
2019-01-09T20:10:59.301Z,-1.73
2019-01-09T20:13:31.266Z,-1.77
2019-01-09T20:16:03.502Z,-1.83
2019-01-09T20:18:35.315Z,-1.84
2019-01-09T20:21:07.401Z,-1.75
2019-01-09T20:23:39.118Z,-1.83
2019-01-09T20:26:10.904Z,-1.90
2019-01-09T20:28:42.685Z,-1.96
2019-01-09T20:31:14.389Z,-1.87
2019-01-09T20:33:46.187Z,-1.76
2019-01-09T20:36:18.335Z,-1.72
2019-01-09T20:38:50.085Z,-1.72
2019-01-09T20:41:21.792Z,-1.75
2019-01-09T20:43:53.614Z,-1.81
2019-01-09T20:46:25.366Z,-1.89
2019-01-09T20:48:57.168Z,-1.97
2019-01-09T20:51:28.973Z,-1.81
2019-01-09T20:54:00.849Z,-1.76
2019-01-09T20:56:32.669Z,-1.88
2019-01-09T20:59:04.637Z,-1.90
2019-01-09T21:01:36.470Z,-1.75
2019-01-09T21:04:09.429Z,-1.83
2019-01-09T21:06:42.274Z,-1.85
2019-01-09T21:09:14.245Z,-1.79
2019-01-09T21:11:47.012Z,-1.87
2019-01-09T21:14:18.802Z,-1.80
2019-01-09T21:16:50.591Z,-1.84
2019-01-09T21:19:22.373Z,-1.85
2019-01-09T21:21:54.149Z,-1.94
2019-01-09T21:24:26.265Z,-1.93
2019-01-09T21:26:58.105Z,-1.84
2019-01-09T21:29:31.201Z,-1.87
2019-01-09T21:32:02.976Z,-1.89
2019-01-09T21:34:34.702Z,-2.01
2019-01-09T21:37:06.592Z,-1.93
2019-01-09T21:39:38.384Z,-1.87
2019-01-09T21:42:10.408Z,-1.86
2019-01-09T21:44:42.144Z,-1.93
2019-01-09T21:47:14.891Z,-1.98
2019-01-09T21:49:46.994Z,-2.13
2019-01-09T21:52:18.787Z,-2.04
2019-01-09T21:54:50.585Z,-2.00
2019-01-09T21:57:22.377Z,-1.87
2019-01-09T21:59:54.141Z,-1.91
2019-01-09T22:02:26.211Z,-1.86
2019-01-09T22:04:58.035Z,-1.98
2019-01-09T22:07:29.818Z,-1.79
2019-01-09T22:10:01.519Z,-1.93
2019-01-09T22:12:34.206Z,-1.83
2019-01-09T22:15:09.077Z,-1.91
2019-01-09T22:17:41.030Z,-1.82
2019-01-09T22:20:13.272Z,-1.72
2019-01-09T22:22:45.122Z,-1.71
2019-01-09T22:25:17.042Z,-1.66
2019-01-09T22:27:48.997Z,-1.84
2019-01-09T22:30:26.134Z,-1.75
2019-01-09T22:32:58.000Z,-1.68
2019-01-09T22:35:29.792Z,-1.71
2019-01-09T22:38:01.575Z,-1.67
2019-01-09T22:40:33.341Z,-1.73
2019-01-09T22:43:05.375Z,-1.70
2019-01-09T22:45:37.138Z,-1.68
2019-01-09T22:48:09.848Z,-1.75
2019-01-09T22:50:41.652Z,-1.72
2019-01-09T22:53:13.615Z,-1.72
2019-01-09T22:55:45.458Z,-1.85
2019-01-09T22:58:17.246Z,-1.77
2019-01-09T23:01:05.818Z,-1.71
2019-01-09T23:03:37.928Z,-1.79
2019-01-09T23:06:10.176Z,-2.06
2019-01-09T23:08:42.113Z,-1.97
2019-01-09T23:11:13.894Z,-1.99
2019-01-09T23:13:45.832Z,-1.83
2019-01-09T23:16:17.780Z,-1.86
2019-01-09T23:18:49.565Z,-1.84
2019-01-09T23:21:21.413Z,-1.88
2019-01-09T23:23:53.196Z,-1.81
2019-01-09T23:26:24.999Z,-1.82
2019-01-09T23:28:56.776Z,-2.04
2019-01-09T23:31:29.549Z,-2.05
2019-01-09T23:34:01.405Z,-1.94
2019-01-09T23:36:33.264Z,-2.15
2019-01-09T23:39:10.683Z,-2.06
2019-01-09T23:41:42.540Z,-1.99
2019-01-09T23:44:14.406Z,-2.11
2019-01-09T23:46:46.176Z,-1.91
2019-01-09T23:49:18.150Z,-2.17
2019-01-09T23:51:52.967Z,-2.12
2019-01-09T23:54:25.040Z,-1.84
2019-01-09T23:56:56.755Z,-1.97
2019-01-09T23:59:28.479Z,-1.98
